createdAt,value
2023-04-14T00:01:06.718Z,50.95
2023-04-14T00:03:34.599Z,50.52
2023-04-14T00:06:02.479Z,50.87
2023-04-14T00:08:30.592Z,50.80
2023-04-14T00:10:58.694Z,51.05
2023-04-14T00:13:26.540Z,50.73
2023-04-14T00:15:56.438Z,51.01
2023-04-14T00:18:26.041Z,51.09
2023-04-14T00:20:55.710Z,51.13
2023-04-14T00:23:23.532Z,50.91
2023-04-14T00:25:53.914Z,51.68
2023-04-14T00:28:23.781Z,51.36
2023-04-14T00:30:51.763Z,51.48
2023-04-14T00:33:19.890Z,51.28
2023-04-14T00:35:49.834Z,50.95
2023-04-14T00:38:17.765Z,50.89
2023-04-14T00:40:47.286Z,50.62
2023-04-14T00:43:19.395Z,50.59
2023-04-14T00:45:50.165Z,50.39
2023-04-14T00:48:19.938Z,50.55
2023-04-14T00:50:50.765Z,50.83
2023-04-14T00:53:19.981Z,50.65
2023-04-14T00:55:48.494Z,51.13
2023-04-14T00:58:17.014Z,51.03
2023-04-14T01:00:52.350Z,51.52
2023-04-14T01:03:20.367Z,51.57
2023-04-14T01:05:49.640Z,51.34
2023-04-14T01:08:19.013Z,50.96
2023-04-14T01:10:50.819Z,50.74
2023-04-14T01:13:33.494Z,50.69
2023-04-14T01:16:05.614Z,50.54
2023-04-14T01:18:42.262Z,50.60
2023-04-14T01:21:18.450Z,51.19
2023-04-14T01:24:10.258Z,51.10
2023-04-14T01:26:41.295Z,50.47
2023-04-14T01:29:36.079Z,50.73
2023-04-14T01:32:10.934Z,50.58
2023-04-14T01:34:45.869Z,50.60
2023-04-14T01:37:17.815Z,51.08
2023-04-14T01:39:51.198Z,50.46
2023-04-14T01:42:21.278Z,49.79
2023-04-14T01:44:53.608Z,49.99
2023-04-14T01:47:24.447Z,50.33
2023-04-14T01:49:54.083Z,50.96
2023-04-14T01:52:23.355Z,50.40
2023-04-14T01:54:54.930Z,50.34
2023-04-14T01:57:26.674Z,50.43
2023-04-14T01:59:58.035Z,50.83
2023-04-14T02:02:28.858Z,50.54
2023-04-14T02:04:58.899Z,50.44
2023-04-14T02:07:28.334Z,50.43
2023-04-14T02:09:58.445Z,50.55
2023-04-14T02:12:28.367Z,50.72
2023-04-14T02:14:56.614Z,50.45
2023-04-14T02:17:27.234Z,50.62
2023-04-14T02:19:56.917Z,50.50
2023-04-14T02:22:25.274Z,49.84
2023-04-14T02:24:55.746Z,50.21
2023-04-14T02:27:31.809Z,50.37
2023-04-14T02:30:06.398Z,50.09
2023-04-14T02:32:37.063Z,50.72
2023-04-14T02:35:13.753Z,49.77
2023-04-14T02:37:45.038Z,49.46
2023-04-14T02:40:17.227Z,50.39
2023-04-14T02:42:49.190Z,49.98
2023-04-14T02:45:23.435Z,51.30
2023-04-14T02:47:58.372Z,51.10
2023-04-14T02:50:29.595Z,51.10
2023-04-14T02:53:05.705Z,50.84
2023-04-14T02:55:38.584Z,49.42
2023-04-14T02:58:07.003Z,49.63
2023-04-14T03:00:41.429Z,50.75
2023-04-14T03:03:13.030Z,50.54
2023-04-14T03:05:42.101Z,50.28
2023-04-14T03:08:13.277Z,49.81
2023-04-14T03:10:46.615Z,49.88
2023-04-14T03:13:17.834Z,50.54
2023-04-14T03:15:46.998Z,50.65
2023-04-14T03:18:19.074Z,51.13
2023-04-14T03:20:48.642Z,50.90
2023-04-14T03:23:19.557Z,51.38
2023-04-14T03:25:57.206Z,51.34
2023-04-14T03:28:31.738Z,51.17
2023-04-14T03:31:05.202Z,51.53
2023-04-14T03:33:46.939Z,51.29
2023-04-14T03:36:18.420Z,50.60
2023-04-14T03:38:49.937Z,51.03
2023-04-14T03:41:22.063Z,51.25
2023-04-14T03:43:54.676Z,51.49
2023-04-14T03:46:24.206Z,51.17
2023-04-14T03:48:56.649Z,51.75
2023-04-14T03:51:27.917Z,52.00
2023-04-14T03:53:58.107Z,51.73
2023-04-14T03:56:27.749Z,51.42
2023-04-14T03:58:58.129Z,51.11
2023-04-14T04:01:28.002Z,50.69
2023-04-14T04:03:58.969Z,51.06
2023-04-14T04:06:27.474Z,51.39
2023-04-14T04:08:59.071Z,50.92
2023-04-14T04:11:32.980Z,51.23
2023-04-14T04:14:02.007Z,51.61
2023-04-14T04:16:31.652Z,52.07
2023-04-14T04:19:06.156Z,52.37
2023-04-14T04:21:36.530Z,52.14
2023-04-14T04:24:07.619Z,51.73
2023-04-14T04:26:36.611Z,51.29
2023-04-14T04:29:05.639Z,52.16
2023-04-14T04:31:35.399Z,52.26
2023-04-14T04:34:07.003Z,52.36
2023-04-14T04:36:39.448Z,52.63
2023-04-14T04:39:07.612Z,52.11
2023-04-14T04:41:40.203Z,51.62
2023-04-14T04:44:08.330Z,52.72
2023-04-14T04:46:48.426Z,52.91
2023-04-14T04:49:19.250Z,53.34
2023-04-14T04:51:48.568Z,53.40
2023-04-14T04:54:20.335Z,53.38
2023-04-14T04:56:48.387Z,52.66
2023-04-14T04:59:16.734Z,53.34
2023-04-14T05:01:44.675Z,53.21
2023-04-14T05:04:12.784Z,53.12
2023-04-14T05:06:42.103Z,53.71
2023-04-14T05:09:10.098Z,53.38
2023-04-14T05:11:37.896Z,53.81
2023-04-14T05:14:05.655Z,53.74
2023-04-14T05:16:33.870Z,54.32
2023-04-14T05:19:01.959Z,54.17
2023-04-14T05:21:30.718Z,54.00
2023-04-14T05:24:00.434Z,53.97
2023-04-14T05:26:49.186Z,54.00
2023-04-14T05:29:16.087Z,53.40
2023-04-14T05:31:43.976Z,53.50
2023-04-14T05:34:11.837Z,53.83
2023-04-14T05:36:39.645Z,53.44
2023-04-14T05:39:08.764Z,53.23
2023-04-14T05:41:36.501Z,53.61
2023-04-14T05:44:04.719Z,53.53
2023-04-14T05:46:33.057Z,53.57
2023-04-14T05:49:01.844Z,53.26
2023-04-14T05:51:30.356Z,53.16
2023-04-14T05:53:58.428Z,53.18
2023-04-14T05:56:28.298Z,53.58
2023-04-14T05:58:56.487Z,53.37
2023-04-14T06:01:24.336Z,53.39
2023-04-14T06:03:52.391Z,53.37
2023-04-14T06:06:20.813Z,53.41
2023-04-14T06:08:48.783Z,53.16
2023-04-14T06:11:17.161Z,53.46
2023-04-14T06:13:46.642Z,52.97
2023-04-14T06:16:14.574Z,52.95
2023-04-14T06:18:42.659Z,53.02
2023-04-14T06:21:11.148Z,52.67
2023-04-14T06:23:39.315Z,52.19
2023-04-14T06:26:07.387Z,52.35
2023-04-14T06:28:35.282Z,52.28
2023-04-14T06:31:04.722Z,52.76
2023-04-14T06:33:33.185Z,52.84
2023-04-14T06:36:01.153Z,52.66
2023-04-14T06:38:29.113Z,52.65
2023-04-14T06:40:57.306Z,52.10
2023-04-14T06:43:25.363Z,52.04
2023-04-14T06:45:53.157Z,52.18
2023-04-14T06:48:22.421Z,52.07
2023-04-14T06:50:55.567Z,51.78
2023-04-14T06:53:23.609Z,51.51
2023-04-14T06:55:59.365Z,51.67
2023-04-14T06:58:28.507Z,51.30
2023-04-14T07:00:57.456Z,50.90
2023-04-14T07:03:27.909Z,50.76
2023-04-14T07:05:56.406Z,50.64
2023-04-14T07:08:24.620Z,50.57
2023-04-14T07:11:00.897Z,50.42
2023-04-14T07:13:29.059Z,50.99
2023-04-14T07:15:57.116Z,50.87
2023-04-14T07:18:26.456Z,50.76
2023-04-14T07:20:55.455Z,50.81
2023-04-14T07:23:23.668Z,50.87
2023-04-14T07:25:52.874Z,50.48
2023-04-14T07:28:21.012Z,50.47
2023-04-14T07:30:49.742Z,49.80
2023-04-14T07:33:19.198Z,49.56
2023-04-14T07:36:01.302Z,49.89
2023-04-14T07:38:31.520Z,49.59
2023-04-14T07:40:59.456Z,49.87
2023-04-14T07:43:27.490Z,49.91
2023-04-14T07:45:55.709Z,49.71
2023-04-14T07:48:23.594Z,49.47
2023-04-14T07:50:53.404Z,49.24
2023-04-14T07:53:22.039Z,48.83
2023-04-14T07:55:50.527Z,49.18
2023-04-14T07:58:19.005Z,48.97
2023-04-14T08:00:47.861Z,48.54
2023-04-14T08:03:17.129Z,48.52
2023-04-14T08:05:46.244Z,48.34
2023-04-14T08:08:16.026Z,48.51
2023-04-14T08:10:44.453Z,48.12
2023-04-14T08:13:12.777Z,48.36
2023-04-14T08:15:41.466Z,49.19
2023-04-14T08:18:10.787Z,49.61
2023-04-14T08:20:39.322Z,49.90
2023-04-14T08:23:08.008Z,49.17
2023-04-14T08:25:37.869Z,48.68
2023-04-14T08:28:06.265Z,48.12
2023-04-14T08:30:34.766Z,47.60
2023-04-14T08:33:02.829Z,47.90
2023-04-14T08:35:39.767Z,47.64
2023-04-14T08:38:10.170Z,47.94
2023-04-14T08:40:42.257Z,48.38
2023-04-14T08:43:13.725Z,47.49
2023-04-14T08:45:45.097Z,47.25
2023-04-14T08:48:16.132Z,47.57
2023-04-14T08:50:56.642Z,48.30
2023-04-14T08:53:27.481Z,48.74
2023-04-14T08:55:58.740Z,48.85
2023-04-14T08:58:26.925Z,48.05
2023-04-14T09:00:55.991Z,47.79
2023-04-14T09:03:25.895Z,48.41
2023-04-14T09:05:55.619Z,48.26
2023-04-14T09:08:24.629Z,47.74
2023-04-14T09:10:53.084Z,48.31
2023-04-14T09:13:28.691Z,48.16
2023-04-14T09:15:58.198Z,48.57
2023-04-14T09:18:28.251Z,46.75
2023-04-14T09:21:29.462Z,45.85
2023-04-14T09:23:48.253Z,46.35
2023-04-14T09:26:17.364Z,46.61
2023-04-14T09:28:47.568Z,45.13
2023-04-14T09:31:16.707Z,45.73
2023-04-14T09:33:48.042Z,44.88
2023-04-14T09:36:20.755Z,44.25
2023-04-14T09:38:49.752Z,45.33
2023-04-14T09:41:19.246Z,45.98
2023-04-14T09:43:49.045Z,44.83
2023-04-14T09:46:18.004Z,44.85
2023-04-14T09:48:54.108Z,44.42
2023-04-14T09:51:29.059Z,44.55
2023-04-14T09:54:03.050Z,45.61
2023-04-14T09:56:31.717Z,44.98
2023-04-14T09:59:03.755Z,45.44
2023-04-14T10:01:34.698Z,45.49
2023-04-14T10:04:03.818Z,46.09
2023-04-14T10:06:32.572Z,46.11
2023-04-14T10:09:00.977Z,44.93
2023-04-14T10:11:30.696Z,43.53
2023-04-14T10:14:01.650Z,42.87
2023-04-14T10:16:29.575Z,43.94
2023-04-14T10:18:58.988Z,43.44
2023-04-14T10:21:28.462Z,44.17
2023-04-14T10:23:58.133Z,43.85
2023-04-14T10:26:26.851Z,43.68
2023-04-14T10:28:56.917Z,43.90
2023-04-14T10:31:30.454Z,44.30
2023-04-14T10:33:59.005Z,44.09
2023-04-14T10:36:29.023Z,44.23
2023-04-14T10:39:02.322Z,42.62
2023-04-14T10:41:46.732Z,43.15
2023-04-14T10:44:25.675Z,41.88
2023-04-14T10:46:56.929Z,42.92
2023-04-14T10:49:30.377Z,41.17
2023-04-14T10:52:00.516Z,42.50
2023-04-14T10:54:28.456Z,43.17
2023-04-14T10:57:15.644Z,42.56
2023-04-14T10:59:44.619Z,43.92
2023-04-14T11:02:28.159Z,42.53
2023-04-14T11:05:04.982Z,42.43
2023-04-14T11:07:40.423Z,40.56
2023-04-14T11:10:28.677Z,40.82
2023-04-14T11:12:58.558Z,41.60
2023-04-14T11:15:44.597Z,41.38
2023-04-14T11:18:15.846Z,41.85
2023-04-14T11:20:44.126Z,42.24
2023-04-14T11:23:14.479Z,41.41
2023-04-14T11:25:42.586Z,40.68
2023-04-14T11:28:10.508Z,40.70
2023-04-14T11:30:41.711Z,41.08
2023-04-14T11:33:09.663Z,40.57
2023-04-14T11:35:39.133Z,39.16
2023-04-14T11:38:10.621Z,38.63
2023-04-14T11:40:38.894Z,37.07
2023-04-14T11:43:08.058Z,36.22
2023-04-14T11:45:36.359Z,37.79
2023-04-14T11:48:06.243Z,37.43
2023-04-14T11:50:38.738Z,37.64
2023-04-14T11:53:10.436Z,38.34
2023-04-14T11:55:38.677Z,37.40
2023-04-14T11:58:06.703Z,37.88
2023-04-14T12:00:34.957Z,38.76
2023-04-14T12:03:04.104Z,39.00
2023-04-14T12:05:34.399Z,39.59
2023-04-14T12:08:07.705Z,39.29
2023-04-14T12:10:38.210Z,39.60
2023-04-14T12:13:07.126Z,39.70
2023-04-14T12:15:37.777Z,39.76
2023-04-14T12:18:08.586Z,39.14
2023-04-14T12:20:43.488Z,39.36
2023-04-14T12:23:11.358Z,39.72
2023-04-14T12:25:41.105Z,39.28
2023-04-14T12:28:09.285Z,38.03
2023-04-14T12:30:38.486Z,37.90
2023-04-14T12:33:12.046Z,38.43
2023-04-14T12:35:41.326Z,38.85
2023-04-14T12:38:13.745Z,38.49
2023-04-14T12:40:46.539Z,37.38
2023-04-14T12:43:14.946Z,35.69
2023-04-14T12:45:44.638Z,35.48
2023-04-14T12:48:13.590Z,36.32
2023-04-14T12:50:41.771Z,36.03
2023-04-14T12:53:26.122Z,36.78
2023-04-14T12:56:10.272Z,35.53
2023-04-14T12:58:39.165Z,36.03
2023-04-14T13:01:07.999Z,37.06
2023-04-14T13:03:40.693Z,35.12
2023-04-14T13:06:09.387Z,34.82
2023-04-14T13:08:37.447Z,33.83
2023-04-14T13:11:06.192Z,34.16
2023-04-14T13:13:35.340Z,35.15
2023-04-14T13:16:12.861Z,34.58
2023-04-14T13:18:43.977Z,33.42
2023-04-14T13:21:13.381Z,33.10
2023-04-14T13:23:41.927Z,33.19
2023-04-14T13:26:09.999Z,33.35
2023-04-14T13:28:39.485Z,32.55
2023-04-14T13:31:07.640Z,32.68
2023-04-14T13:33:35.602Z,32.55
2023-04-14T13:36:04.015Z,33.10
2023-04-14T13:38:32.089Z,32.83
2023-04-14T13:41:00.312Z,31.58
2023-04-14T13:43:29.017Z,30.95
2023-04-14T13:45:59.203Z,31.98
2023-04-14T13:48:27.219Z,30.15
2023-04-14T13:50:55.824Z,30.34
2023-04-14T13:53:24.025Z,29.86
2023-04-14T13:55:52.059Z,30.03
2023-04-14T13:58:20.281Z,31.16
2023-04-14T14:00:48.403Z,30.36
2023-04-14T14:03:17.999Z,30.07
2023-04-14T14:05:46.416Z,30.47
2023-04-14T14:08:15.859Z,30.22
2023-04-14T14:10:44.246Z,30.29
2023-04-14T14:13:12.185Z,30.00
2023-04-14T14:15:40.457Z,31.97
2023-04-14T14:18:08.907Z,31.61
2023-04-14T14:20:38.941Z,30.99
2023-04-14T14:23:06.932Z,31.42
2023-04-14T14:25:34.914Z,29.64
2023-04-14T14:28:02.786Z,30.50
2023-04-14T14:30:31.224Z,29.42
2023-04-14T14:32:59.326Z,28.99
2023-04-14T14:35:27.111Z,28.29
2023-04-14T14:37:58.043Z,29.16
2023-04-14T14:40:27.401Z,29.81
2023-04-14T14:42:55.623Z,29.77
2023-04-14T14:45:30.319Z,30.20
2023-04-14T14:47:59.957Z,31.21
2023-04-14T14:50:27.835Z,29.84
2023-04-14T14:52:58.049Z,29.30
2023-04-14T14:55:27.259Z,29.47
2023-04-14T14:57:55.520Z,29.48
2023-04-14T15:00:23.239Z,30.51
2023-04-14T15:02:51.311Z,30.49
2023-04-14T15:05:19.380Z,29.08
2023-04-14T15:07:47.579Z,27.59
2023-04-14T15:10:17.237Z,27.31
2023-04-14T15:12:45.140Z,26.35
2023-04-14T15:15:13.157Z,27.30
2023-04-14T15:17:41.209Z,29.67
2023-04-14T15:20:10.576Z,29.30
2023-04-14T15:22:38.548Z,28.69
2023-04-14T15:25:09.199Z,28.38
2023-04-14T15:27:38.645Z,28.09
2023-04-14T15:30:08.274Z,27.54
2023-04-14T15:32:36.117Z,27.80
2023-04-14T15:35:04.325Z,27.83
2023-04-14T15:37:32.758Z,29.11
2023-04-14T15:40:01.644Z,30.09
2023-04-14T15:42:29.616Z,28.19
2023-04-14T15:44:58.694Z,29.73
2023-04-14T15:47:28.121Z,28.93
2023-04-14T15:50:09.563Z,30.22
2023-04-14T15:52:39.453Z,30.48
2023-04-14T15:55:08.990Z,31.24
2023-04-14T15:57:37.167Z,31.25
2023-04-14T16:00:08.860Z,32.03
2023-04-14T16:02:43.124Z,32.53
2023-04-14T16:05:11.856Z,32.31
2023-04-14T16:07:40.304Z,33.21
2023-04-14T16:10:09.240Z,34.22
2023-04-14T16:12:37.809Z,34.84
2023-04-14T16:15:09.713Z,35.35
2023-04-14T16:17:37.587Z,35.47
2023-04-14T16:20:06.811Z,35.23
2023-04-14T16:22:34.799Z,35.90
2023-04-14T16:25:04.417Z,36.18
2023-04-14T16:27:32.181Z,36.08
2023-04-14T16:30:00.209Z,36.06
2023-04-14T16:32:30.500Z,35.58
2023-04-14T16:34:58.500Z,35.28
2023-04-14T16:37:27.517Z,35.64
2023-04-14T16:39:56.162Z,35.88
2023-04-14T16:42:25.156Z,35.45
2023-04-14T16:44:53.608Z,35.98
2023-04-14T16:47:22.200Z,36.38
2023-04-14T16:49:51.792Z,35.91
2023-04-14T16:52:20.869Z,35.21
2023-04-14T16:54:48.715Z,35.90
2023-04-14T16:57:16.813Z,35.60
2023-04-14T16:59:46.231Z,34.82
2023-04-14T17:02:14.157Z,34.57
2023-04-14T17:04:42.155Z,34.72
2023-04-14T17:07:11.680Z,34.96
2023-04-14T17:09:39.507Z,35.71
2023-04-14T17:12:07.497Z,36.42
2023-04-14T17:14:35.679Z,35.64
2023-04-14T17:17:03.777Z,35.44
2023-04-14T17:19:32.243Z,36.72
2023-04-14T17:22:00.717Z,37.13
2023-04-14T17:24:30.557Z,37.88
2023-04-14T17:26:58.549Z,37.36
2023-04-14T17:29:27.232Z,37.54
2023-04-14T17:31:55.935Z,37.08
2023-04-14T17:34:23.936Z,37.37
2023-04-14T17:36:52.140Z,37.13
2023-04-14T17:39:26.676Z,37.71
2023-04-14T17:41:58.053Z,37.31
2023-04-14T17:44:31.868Z,37.43
2023-04-14T17:47:01.029Z,37.19
2023-04-14T17:49:28.989Z,37.75
2023-04-14T17:51:57.319Z,38.56
2023-04-14T17:54:25.270Z,39.00
2023-04-14T17:56:53.786Z,38.70
2023-04-14T17:59:23.116Z,38.90
2023-04-14T18:01:51.298Z,39.15
2023-04-14T18:04:19.099Z,38.30
2023-04-14T18:06:46.985Z,37.88
2023-04-14T18:09:14.743Z,38.51
2023-04-14T18:11:42.870Z,38.12
2023-04-14T18:14:10.649Z,38.83
2023-04-14T18:16:40.536Z,38.71
2023-04-14T18:19:09.161Z,39.18
2023-04-14T18:21:37.168Z,40.09
2023-04-14T18:26:36.662Z,40.29
2023-04-14T18:29:04.920Z,40.78
2023-04-14T18:31:32.887Z,41.32
2023-04-14T18:34:05.322Z,41.73
2023-04-14T18:36:33.718Z,42.03
2023-04-14T18:39:02.278Z,42.76
2023-04-14T18:41:30.438Z,42.73
2023-04-14T18:43:58.701Z,42.67
2023-04-14T18:46:27.504Z,43.54
2023-04-14T18:48:55.454Z,43.28
2023-04-14T18:51:25.905Z,43.02
2023-04-14T18:53:53.756Z,42.89
2023-04-14T18:56:21.604Z,42.34
2023-04-14T18:58:49.472Z,42.41
2023-04-14T19:01:18.768Z,43.27
2023-04-14T19:03:47.329Z,43.23
2023-04-14T19:06:15.670Z,43.27
2023-04-14T19:08:44.873Z,42.64
2023-04-14T19:11:12.641Z,41.86
2023-04-14T19:13:41.806Z,42.15
2023-04-14T19:16:11.717Z,41.95
2023-04-14T19:18:39.687Z,42.69
2023-04-14T19:21:08.970Z,42.30
2023-04-14T19:23:38.224Z,42.41
2023-04-14T19:26:08.384Z,42.55
2023-04-14T19:28:39.909Z,42.89
2023-04-14T19:31:07.889Z,43.56
2023-04-14T19:33:35.748Z,43.78
2023-04-14T19:36:03.630Z,44.06
2023-04-14T19:38:31.895Z,44.20
2023-04-14T19:40:59.802Z,43.80
2023-04-14T19:43:28.952Z,44.20
2023-04-14T19:45:57.964Z,44.30
2023-04-14T19:48:25.874Z,44.74
2023-04-14T19:50:54.801Z,45.70
2023-04-14T19:53:23.415Z,45.35
2023-04-14T19:55:52.008Z,45.05
2023-04-14T19:58:21.695Z,45.52
2023-04-14T20:00:52.748Z,45.58
2023-04-14T20:03:21.294Z,45.47
2023-04-14T20:05:51.761Z,46.20
2023-04-14T20:08:20.319Z,45.26
2023-04-14T20:10:51.168Z,45.65
2023-04-14T20:13:19.746Z,46.38
2023-04-14T20:15:49.121Z,46.16
2023-04-14T20:18:18.834Z,45.97
2023-04-14T20:20:48.810Z,45.72
2023-04-14T20:23:17.012Z,45.79
2023-04-14T20:25:45.881Z,46.12
2023-04-14T20:28:16.687Z,45.97
2023-04-14T20:30:45.162Z,45.88
2023-04-14T20:33:13.327Z,46.19
2023-04-14T20:35:43.443Z,46.99
2023-04-14T20:38:13.942Z,46.71
2023-04-14T20:40:43.653Z,46.25
2023-04-14T20:43:11.514Z,46.49
2023-04-14T20:45:39.588Z,46.55
2023-04-14T20:48:09.168Z,47.34
2023-04-14T20:50:37.296Z,47.55
2023-04-14T20:53:07.384Z,47.64
2023-04-14T20:55:36.622Z,47.10
2023-04-14T20:58:04.556Z,47.94
2023-04-14T21:00:34.359Z,47.62
2023-04-14T21:03:03.530Z,47.28
2023-04-14T21:05:31.596Z,47.31
2023-04-14T21:07:59.531Z,48.45
2023-04-14T21:10:28.876Z,48.12
2023-04-14T21:15:30.206Z,47.71
2023-04-14T21:15:56.080Z,47.83
2023-04-14T21:18:24.192Z,47.82
2023-04-14T21:20:52.031Z,48.31
2023-04-14T21:23:20.358Z,48.34
2023-04-14T21:25:50.091Z,48.28
2023-04-14T21:28:18.324Z,48.30
2023-04-14T21:30:46.339Z,47.91
2023-04-14T21:33:14.221Z,48.23
2023-04-14T21:35:42.240Z,48.41
2023-04-14T21:38:09.938Z,48.63
2023-04-14T21:40:38.843Z,48.11
2023-04-14T21:43:08.005Z,48.00
2023-04-14T21:45:36.190Z,48.56
2023-04-14T21:48:04.309Z,49.09
2023-04-14T21:50:33.315Z,48.55
2023-04-14T21:53:01.526Z,48.52
2023-04-14T21:55:29.272Z,48.24
2023-04-14T21:57:57.165Z,48.32
2023-04-14T22:00:27.882Z,48.50
2023-04-14T22:02:55.887Z,48.43
2023-04-14T22:05:24.232Z,48.77
2023-04-14T22:07:52.032Z,47.90
2023-04-14T22:10:20.669Z,48.23
2023-04-14T22:12:49.021Z,49.03
2023-04-14T22:15:16.993Z,48.60
2023-04-14T22:17:46.506Z,49.50
2023-04-14T22:20:14.658Z,49.58
2023-04-14T22:22:42.397Z,49.27
2023-04-14T22:25:11.693Z,49.38
2023-04-14T22:27:39.532Z,49.33
2023-04-14T22:30:09.541Z,49.14
2023-04-14T22:32:37.476Z,49.23
2023-04-14T22:35:07.549Z,48.92
2023-04-14T22:37:35.394Z,49.30
2023-04-14T22:40:03.487Z,49.53
2023-04-14T22:42:31.677Z,49.38
2023-04-14T22:44:59.659Z,49.08
2023-04-14T22:47:27.606Z,49.09
2023-04-14T22:49:55.544Z,49.05
2023-04-14T22:52:24.703Z,49.25
2023-04-14T22:54:52.751Z,49.23
2023-04-14T22:57:20.685Z,49.82
2023-04-14T22:59:48.442Z,49.62
2023-04-14T23:02:16.575Z,49.76
2023-04-14T23:04:45.091Z,49.89
2023-04-14T23:07:13.573Z,49.95
2023-04-14T23:09:42.950Z,49.88
2023-04-14T23:12:10.703Z,49.79
2023-04-14T23:14:38.613Z,49.98
2023-04-14T23:17:06.695Z,49.84
2023-04-14T23:19:35.837Z,50.35
2023-04-14T23:22:04.509Z,50.23
2023-04-14T23:24:32.297Z,50.12
2023-04-14T23:27:01.844Z,50.26
2023-04-14T23:29:29.754Z,49.89
2023-04-14T23:31:57.761Z,50.37
2023-04-14T23:34:25.934Z,50.45
2023-04-14T23:36:53.760Z,50.63
2023-04-14T23:39:21.552Z,50.26
2023-04-14T23:41:49.310Z,50.49
2023-04-14T23:44:18.458Z,50.52
2023-04-14T23:46:46.402Z,50.25
2023-04-14T23:49:23.184Z,50.54
2023-04-14T23:51:52.729Z,50.90
2023-04-14T23:54:20.461Z,50.79
2023-04-14T23:56:48.451Z,50.52
2023-04-14T23:59:16.461Z,50.64
